createdAt,value
2019-02-28T00:01:43.198Z,36.03
2019-02-28T00:04:19.100Z,42.67
2019-02-28T00:06:54.061Z,38.37
2019-02-28T00:09:28.837Z,39.43
2019-02-28T00:12:06.291Z,39.73
2019-02-28T00:14:41.347Z,36.30
2019-02-28T00:17:16.245Z,41.10
2019-02-28T00:19:51.124Z,35.57
2019-02-28T00:22:26.023Z,37.77
2019-02-28T00:25:01.197Z,38.70
2019-02-28T00:27:37.403Z,37.80
2019-02-28T00:30:12.407Z,40.60
2019-02-28T00:32:47.285Z,41.97
2019-02-28T00:35:22.561Z,41.47
2019-02-28T00:37:57.520Z,38.07
2019-02-28T00:40:32.683Z,37.20
2019-02-28T00:43:08.935Z,39.23
2019-02-28T00:45:43.805Z,40.83
2019-02-28T00:48:21.725Z,44.17
2019-02-28T00:50:55.180Z,36.40
2019-02-28T00:53:30.079Z,41.33
2019-02-28T00:56:04.845Z,37.10
2019-02-28T00:58:39.769Z,43.57
2019-02-28T01:01:14.539Z,42.83
2019-02-28T01:03:49.512Z,42.33
2019-02-28T01:06:24.273Z,40.83
2019-02-28T01:08:59.175Z,44.67
2019-02-28T01:11:34.411Z,42.87
2019-02-28T01:14:09.313Z,45.20
2019-02-28T01:16:44.224Z,43.53
2019-02-28T01:19:19.146Z,48.03
2019-02-28T01:21:55.387Z,43.70
2019-02-28T01:24:34.542Z,43.57
2019-02-28T01:27:09.545Z,45.87
2019-02-28T01:29:45.256Z,44.20
2019-02-28T01:32:20.063Z,46.40
2019-02-28T01:34:55.332Z,43.33
2019-02-28T01:37:30.245Z,39.10
2019-02-28T01:40:05.819Z,45.07
2019-02-28T01:42:40.719Z,42.37
2019-02-28T01:45:15.759Z,41.30
2019-02-28T01:47:51.789Z,41.10
2019-02-28T01:50:29.680Z,44.10
2019-02-28T01:53:03.806Z,49.70
2019-02-28T01:55:38.629Z,43.20
2019-02-28T01:58:16.591Z,43.73
2019-02-28T02:00:50.216Z,44.07
2019-02-28T02:03:41.696Z,47.57
2019-02-28T02:06:16.611Z,42.70
2019-02-28T02:08:52.460Z,43.23
2019-02-28T02:11:27.349Z,52.63
2019-02-28T02:14:04.116Z,46.70
2019-02-28T02:16:39.042Z,50.40
2019-02-28T02:19:17.482Z,47.07
2019-02-28T02:21:50.442Z,55.50
2019-02-28T02:24:27.879Z,44.70
2019-02-28T02:27:01.971Z,53.00
2019-02-28T02:29:37.164Z,55.30
2019-02-28T02:32:12.153Z,44.80
2019-02-28T02:34:47.727Z,49.97
2019-02-28T02:37:26.474Z,52.53
2019-02-28T02:39:59.286Z,58.00
2019-02-28T02:42:34.286Z,52.43
2019-02-28T02:45:10.655Z,49.07
2019-02-28T02:47:45.526Z,52.67
2019-02-28T02:50:22.151Z,58.37
2019-02-28T02:52:57.095Z,50.13
2019-02-28T02:55:31.972Z,54.80
2019-02-28T02:58:06.772Z,55.47
2019-02-28T03:00:41.630Z,53.10
2019-02-28T03:03:16.564Z,57.87
2019-02-28T03:05:51.448Z,51.27
2019-02-28T03:08:26.569Z,54.43
2019-02-28T03:11:01.494Z,57.30
2019-02-28T03:13:41.850Z,52.40
2019-02-28T03:16:13.008Z,52.53
2019-02-28T03:18:47.964Z,58.20
2019-02-28T03:21:22.897Z,55.03
2019-02-28T03:23:57.885Z,53.93
2019-02-28T03:26:32.927Z,54.87
2019-02-28T03:29:08.930Z,50.67
2019-02-28T03:31:54.541Z,56.93
2019-02-28T03:34:20.466Z,54.17
2019-02-28T03:36:57.578Z,55.60
2019-02-28T03:39:32.840Z,58.90
2019-02-28T03:42:07.635Z,56.43
2019-02-28T03:44:42.713Z,58.87
2019-02-28T03:47:22.668Z,60.53
2019-02-28T03:49:54.070Z,56.47
2019-02-28T03:52:29.107Z,55.80
2019-02-28T03:55:04.748Z,62.63
2019-02-28T03:57:39.627Z,64.73
2019-02-28T04:00:19.283Z,60.17
2019-02-28T04:02:58.719Z,59.83
2019-02-28T04:05:32.471Z,63.67
2019-02-28T04:08:07.402Z,65.27
2019-02-28T04:10:42.352Z,65.30
2019-02-28T04:13:19.167Z,61.50
2019-02-28T04:16:08.346Z,63.83
2019-02-28T04:18:44.192Z,55.07
2019-02-28T04:21:17.518Z,69.83
2019-02-28T04:23:55.829Z,61.47
2019-02-28T04:26:33.196Z,58.40
2019-02-28T04:29:10.546Z,63.27
2019-02-28T04:31:46.808Z,62.97
2019-02-28T04:34:21.669Z,67.00
2019-02-28T04:36:56.464Z,59.00
2019-02-28T04:39:31.328Z,68.93
2019-02-28T04:42:07.924Z,69.17
2019-02-28T04:44:42.880Z,66.57
2019-02-28T04:47:17.754Z,62.73
2019-02-28T04:49:53.530Z,60.70
2019-02-28T04:52:30.133Z,64.07
2019-02-28T04:55:05.151Z,68.43
2019-02-28T04:57:39.957Z,68.10
2019-02-28T05:00:14.930Z,64.80
2019-02-28T05:02:53.719Z,66.67
2019-02-28T05:05:26.300Z,63.60
2019-02-28T05:08:04.990Z,59.70
2019-02-28T05:10:38.280Z,64.60
2019-02-28T05:13:14.366Z,58.60
2019-02-28T05:15:49.956Z,62.73
2019-02-28T05:18:27.600Z,60.80
2019-02-28T05:21:01.690Z,70.03
2019-02-28T05:23:41.608Z,79.97
2019-02-28T05:26:16.396Z,61.07
2019-02-28T05:28:52.170Z,65.20
2019-02-28T05:31:28.054Z,71.33
2019-02-28T05:34:03.032Z,73.97
2019-02-28T05:36:38.805Z,71.30
2019-02-28T05:39:13.804Z,76.37
2019-02-28T05:41:49.459Z,70.67
2019-02-28T05:44:24.990Z,79.23
2019-02-28T05:46:59.882Z,60.87
2019-02-28T05:49:34.838Z,65.27
2019-02-28T05:52:09.620Z,68.27
2019-02-28T05:54:47.241Z,75.93
2019-02-28T05:57:21.169Z,66.00
2019-02-28T06:00:01.359Z,69.60
2019-02-28T06:02:32.816Z,72.80
2019-02-28T06:05:08.421Z,68.70
2019-02-28T06:07:44.700Z,66.43
2019-02-28T06:10:23.519Z,61.90
2019-02-28T06:12:56.184Z,63.77
2019-02-28T06:15:31.096Z,61.17
2019-02-28T06:18:05.990Z,79.90
2019-02-28T06:20:40.945Z,73.07
2019-02-28T06:23:15.857Z,66.30
2019-02-28T06:25:50.761Z,64.20
2019-02-28T06:28:27.637Z,67.83
2019-02-28T06:31:02.256Z,66.97
2019-02-28T06:33:37.208Z,66.43
2019-02-28T06:36:12.110Z,66.63
2019-02-28T06:38:46.998Z,69.70
2019-02-28T06:41:21.944Z,77.97
2019-02-28T06:43:56.850Z,72.40
2019-02-28T06:46:31.849Z,74.13
2019-02-28T06:49:07.211Z,66.73
2019-02-28T06:51:42.609Z,69.50
2019-02-28T06:54:17.578Z,69.10
2019-02-28T06:56:54.109Z,65.77
2019-02-28T06:59:30.246Z,65.57
2019-02-28T07:02:05.354Z,75.10
2019-02-28T07:04:45.458Z,75.33
2019-02-28T07:07:26.159Z,68.63
2019-02-28T07:10:02.470Z,69.53
2019-02-28T07:12:42.872Z,58.87
2019-02-28T07:15:23.765Z,66.90
2019-02-28T07:17:54.688Z,66.63
2019-02-28T07:20:29.800Z,64.20
2019-02-28T07:23:04.908Z,55.63
2019-02-28T07:25:44.223Z,59.90
2019-02-28T07:28:19.654Z,70.37
2019-02-28T07:30:54.478Z,65.53
2019-02-28T07:33:31.880Z,57.60
2019-02-28T07:36:09.571Z,62.50
2019-02-28T07:38:43.803Z,63.07
2019-02-28T07:41:20.262Z,62.33
2019-02-28T07:43:55.257Z,64.33
2019-02-28T07:46:33.550Z,67.30
2019-02-28T07:49:10.018Z,60.70
2019-02-28T07:51:45.970Z,65.93
2019-02-28T07:54:20.916Z,64.77
2019-02-28T07:56:58.406Z,61.03
2019-02-28T07:59:40.785Z,58.07
2019-02-28T08:02:15.792Z,63.03
2019-02-28T08:04:54.478Z,63.97
2019-02-28T08:07:36.294Z,65.00
2019-02-28T08:10:18.691Z,67.07
2019-02-28T08:12:54.562Z,61.63
2019-02-28T08:15:30.710Z,63.60
2019-02-28T08:18:08.220Z,64.50
2019-02-28T08:20:43.256Z,73.00
2019-02-28T08:23:18.340Z,64.50
2019-02-28T08:25:53.248Z,65.03
2019-02-28T08:28:35.892Z,72.87
2019-02-28T08:31:07.824Z,71.53
2019-02-28T08:33:42.841Z,71.90
2019-02-28T08:36:17.830Z,66.23
2019-02-28T08:38:53.290Z,64.80
2019-02-28T08:41:28.319Z,65.50
2019-02-28T08:44:03.290Z,71.63
2019-02-28T08:46:38.262Z,74.07
2019-02-28T08:49:13.185Z,78.40
2019-02-28T08:51:48.110Z,67.70
2019-02-28T08:54:27.228Z,84.77
2019-02-28T08:56:59.784Z,71.13
2019-02-28T08:59:36.071Z,81.00
2019-02-28T09:02:11.042Z,79.33
2019-02-28T09:04:47.913Z,75.37
2019-02-28T09:07:23.371Z,76.70
2019-02-28T09:09:58.410Z,88.33
2019-02-28T09:12:34.122Z,83.93
2019-02-28T09:15:10.689Z,87.77
2019-02-28T09:17:46.958Z,76.30
2019-02-28T09:20:22.919Z,84.47
2019-02-28T09:23:01.657Z,85.10
2019-02-28T09:25:34.414Z,94.30
2019-02-28T09:28:13.111Z,88.70
2019-02-28T09:30:47.121Z,82.70
2019-02-28T09:33:23.415Z,86.53
2019-02-28T09:35:58.644Z,87.00
2019-02-28T09:38:36.087Z,79.80
2019-02-28T09:41:12.799Z,84.07
2019-02-28T09:43:47.678Z,80.70
2019-02-28T09:46:24.123Z,79.40
2019-02-28T09:48:59.987Z,78.90
2019-02-28T09:51:35.031Z,90.40
2019-02-28T09:54:35.571Z,79.53
2019-02-28T09:57:10.493Z,113.30
2019-02-28T09:59:45.347Z,101.50
2019-02-28T10:02:20.643Z,104.83
2019-02-28T10:04:57.314Z,99.77
2019-02-28T10:07:33.104Z,105.07
2019-02-28T10:10:11.309Z,86.03
2019-02-28T10:12:46.820Z,86.97
2019-02-28T10:15:22.737Z,86.40
2019-02-28T10:18:00.738Z,87.87
2019-02-28T10:20:34.414Z,84.60
2019-02-28T10:23:09.318Z,85.73
2019-02-28T10:25:44.221Z,77.47
2019-02-28T10:28:19.500Z,93.77
2019-02-28T10:30:54.404Z,87.60
2019-02-28T10:33:29.762Z,81.83
2019-02-28T10:36:05.637Z,85.60
2019-02-28T10:38:40.647Z,94.57
2019-02-28T10:41:15.533Z,83.90
2019-02-28T10:43:54.787Z,84.23
2019-02-28T10:46:27.115Z,90.87
2019-02-28T10:49:01.989Z,101.43
2019-02-28T10:51:36.927Z,101.60
2019-02-28T10:54:14.584Z,82.17
2019-02-28T10:56:48.479Z,78.83
2019-02-28T10:59:24.392Z,75.70
2019-02-28T11:01:59.964Z,78.77
2019-02-28T11:04:36.127Z,85.13
2019-02-28T11:07:11.219Z,82.60
2019-02-28T11:09:46.167Z,77.67
2019-02-28T11:12:23.715Z,83.87
2019-02-28T11:14:58.025Z,80.57
2019-02-28T11:17:34.305Z,67.80
2019-02-28T11:20:21.845Z,81.83
2019-02-28T11:22:48.497Z,76.67
2019-02-28T11:25:26.128Z,68.20
2019-02-28T11:28:01.186Z,64.80
2019-02-28T11:30:36.760Z,68.47
2019-02-28T11:33:11.924Z,74.63
2019-02-28T11:35:48.055Z,65.70
2019-02-28T11:38:22.965Z,69.60
2019-02-28T11:40:57.965Z,76.00
2019-02-28T11:43:38.361Z,86.80
2019-02-28T11:46:12.509Z,74.87
2019-02-28T11:48:47.383Z,67.17
2019-02-28T11:51:22.407Z,71.30
2019-02-28T11:53:58.073Z,62.37
2019-02-28T11:56:34.612Z,62.77
2019-02-28T11:59:10.391Z,57.30
2019-02-28T12:01:47.504Z,64.27
2019-02-28T12:04:22.153Z,59.00
2019-02-28T12:06:57.472Z,65.53
2019-02-28T12:09:34.146Z,68.37
2019-02-28T12:12:10.439Z,61.97
2019-02-28T12:14:47.958Z,68.80
2019-02-28T12:17:25.574Z,73.50
2019-02-28T12:20:00.633Z,82.73
2019-02-28T12:22:36.939Z,68.07
2019-02-28T12:25:14.236Z,72.30
2019-02-28T12:27:49.255Z,75.90
2019-02-28T12:30:26.799Z,89.10
2019-02-28T12:33:01.794Z,83.17
2019-02-28T12:35:40.368Z,78.93
2019-02-28T12:38:13.339Z,84.87
2019-02-28T12:40:49.496Z,85.27
2019-02-28T12:43:24.693Z,80.83
2019-02-28T12:46:00.153Z,79.30
2019-02-28T12:48:37.441Z,73.70
2019-02-28T12:51:12.875Z,73.40
2019-02-28T12:53:47.910Z,80.30
2019-02-28T12:56:22.867Z,79.73
2019-02-28T12:58:57.705Z,83.67
2019-02-28T13:01:34.367Z,75.87
2019-02-28T13:04:09.611Z,81.00
2019-02-28T13:06:44.510Z,80.27
2019-02-28T13:09:20.297Z,81.13
2019-02-28T13:11:55.117Z,82.90
2019-02-28T13:14:30.089Z,87.33
2019-02-28T13:17:05.123Z,76.37
2019-02-28T13:19:41.468Z,79.07
2019-02-28T13:22:18.901Z,69.07
2019-02-28T13:24:53.006Z,62.30
2019-02-28T13:27:28.008Z,69.67
2019-02-28T13:30:05.514Z,65.93
2019-02-28T13:32:40.170Z,65.07
2019-02-28T13:35:18.006Z,71.13
2019-02-28T13:37:53.078Z,61.80
2019-02-28T13:40:28.138Z,57.90
2019-02-28T13:43:06.025Z,58.10
2019-02-28T13:45:40.980Z,60.30
2019-02-28T13:48:25.430Z,53.33
2019-02-28T13:50:52.545Z,59.07
2019-02-28T13:53:30.586Z,65.47
2019-02-28T13:56:05.027Z,64.80
2019-02-28T13:58:40.114Z,61.40
2019-02-28T14:01:19.452Z,62.33
2019-02-28T14:03:51.973Z,66.73
2019-02-28T14:06:26.944Z,72.10
2019-02-28T14:09:01.848Z,67.23
2019-02-28T14:11:41.768Z,73.43
2019-02-28T14:14:17.393Z,65.73
2019-02-28T14:16:52.398Z,70.60
2019-02-28T14:19:27.274Z,70.10
2019-02-28T14:22:03.033Z,66.70
2019-02-28T14:24:37.995Z,74.30
2019-02-28T14:27:12.982Z,79.90
2019-02-28T14:29:49.045Z,74.30
2019-02-28T14:32:24.032Z,71.33
2019-02-28T14:34:59.967Z,62.00
2019-02-28T14:37:35.740Z,68.60
2019-02-28T14:40:14.649Z,71.13
2019-02-28T14:42:50.068Z,75.50
2019-02-28T14:45:25.853Z,75.90
2019-02-28T14:48:03.913Z,64.77
2019-02-28T14:50:37.367Z,65.67
2019-02-28T14:53:14.424Z,76.50
2019-02-28T14:55:48.909Z,74.63
2019-02-28T14:58:23.807Z,77.50
2019-02-28T15:00:58.796Z,80.10
2019-02-28T15:03:36.850Z,81.70
2019-02-28T15:06:11.854Z,84.10
2019-02-28T15:08:47.416Z,67.60
2019-02-28T15:11:23.787Z,76.80
2019-02-28T15:13:59.588Z,76.30
2019-02-28T15:16:35.327Z,84.30
2019-02-28T15:19:10.575Z,84.77
2019-02-28T15:21:45.368Z,85.83
2019-02-28T15:24:20.295Z,83.20
2019-02-28T15:26:55.219Z,79.53
2019-02-28T15:29:30.165Z,73.70
2019-02-28T15:32:05.177Z,76.53
2019-02-28T15:34:42.933Z,73.00
2019-02-28T15:37:17.847Z,89.20
2019-02-28T15:39:52.801Z,76.47
2019-02-28T15:42:27.713Z,84.90
2019-02-28T15:45:03.996Z,82.53
2019-02-28T15:47:40.123Z,76.07
2019-02-28T15:50:16.305Z,64.73
2019-02-28T15:52:55.825Z,72.57
2019-02-28T15:55:30.903Z,81.83
2019-02-28T15:58:06.968Z,71.30
2019-02-28T16:00:42.483Z,72.33
2019-02-28T16:03:18.436Z,70.77
2019-02-28T16:05:56.222Z,72.93
2019-02-28T16:08:31.293Z,72.47
2019-02-28T16:11:07.177Z,71.17
2019-02-28T16:13:42.182Z,84.23
2019-02-28T16:16:17.103Z,70.00
2019-02-28T16:18:52.029Z,67.77
2019-02-28T16:21:27.771Z,74.90
2019-02-28T16:24:05.094Z,69.13
2019-02-28T16:26:39.451Z,81.27
2019-02-28T16:29:15.241Z,77.43
2019-02-28T16:31:52.009Z,74.40
2019-02-28T16:34:26.884Z,63.80
2019-02-28T16:37:03.620Z,63.70
2019-02-28T16:39:39.773Z,70.63
2019-02-28T16:42:14.640Z,79.63
2019-02-28T16:44:49.620Z,71.90
2019-02-28T16:47:25.221Z,69.20
2019-02-28T16:50:00.367Z,70.13
2019-02-28T16:52:37.360Z,74.00
2019-02-28T16:55:12.154Z,72.10
2019-02-28T16:57:48.011Z,63.00
2019-02-28T17:00:23.189Z,63.10
2019-02-28T17:03:17.104Z,71.57
2019-02-28T17:05:58.448Z,68.87
2019-02-28T17:08:36.659Z,66.20
2019-02-28T17:11:14.684Z,65.57
2019-02-28T17:13:55.721Z,68.03
2019-02-28T17:16:37.061Z,67.23
2019-02-28T17:19:11.751Z,63.77
2019-02-28T17:21:48.628Z,63.20
2019-02-28T17:24:38.012Z,69.53
2019-02-28T17:27:33.065Z,64.77
2019-02-28T17:30:22.307Z,79.77
2019-02-28T17:32:58.648Z,71.73
2019-02-28T17:35:34.929Z,67.67
2019-02-28T17:38:09.973Z,71.90
2019-02-28T17:40:46.400Z,64.47
2019-02-28T17:43:24.417Z,59.60
2019-02-28T17:45:58.725Z,70.77
2019-02-28T17:49:55.947Z,75.17
2019-02-28T17:52:46.780Z,69.27
2019-02-28T17:56:26.627Z,68.93
2019-02-28T18:00:17.041Z,70.77
2019-02-28T18:03:44.981Z,69.73
2019-02-28T18:07:29.611Z,73.57
2019-02-28T18:11:05.786Z,79.37
2019-02-28T18:14:34.146Z,67.97
2019-02-28T18:18:08.894Z,77.10
2019-02-28T18:21:55.928Z,84.10
2019-02-28T18:25:51.972Z,85.67
2019-02-28T18:28:58.012Z,71.87
2019-02-28T18:31:32.529Z,72.23
2019-02-28T18:34:16.963Z,78.10
2019-02-28T18:36:52.535Z,82.23
2019-02-28T18:39:28.395Z,73.10
2019-02-28T18:42:04.134Z,83.17
2019-02-28T18:44:41.236Z,74.50
2019-02-28T18:47:17.024Z,80.63
2019-02-28T18:49:52.002Z,77.93
2019-02-28T18:52:27.120Z,73.40
2019-02-28T18:55:06.155Z,67.43
2019-02-28T18:57:38.781Z,83.70
2019-02-28T19:00:17.454Z,85.23
2019-02-28T19:02:52.737Z,79.20
2019-02-28T19:05:38.020Z,87.40
2019-02-28T19:08:13.002Z,80.30
2019-02-28T19:10:48.060Z,67.93
2019-02-28T19:13:23.022Z,89.20
2019-02-28T19:15:58.021Z,111.60
2019-02-28T19:18:33.623Z,85.93
2019-02-28T19:21:08.613Z,123.53
2019-02-28T19:23:43.647Z,120.27
2019-02-28T19:26:19.447Z,97.20
2019-02-28T19:28:54.746Z,112.80
2019-02-28T19:31:29.768Z,108.07
2019-02-28T19:34:04.742Z,111.10
2019-02-28T19:36:39.688Z,99.50
2019-02-28T19:39:14.654Z,92.87
2019-02-28T19:41:49.598Z,111.43
2019-02-28T19:44:27.561Z,103.93
2019-02-28T19:47:03.994Z,120.63
2019-02-28T19:49:39.031Z,97.27
2019-02-28T19:52:14.320Z,90.00
2019-02-28T19:54:50.166Z,95.70
2019-02-28T19:57:26.024Z,92.07
2019-02-28T20:00:01.133Z,98.13
2019-02-28T20:02:37.523Z,101.27
2019-02-28T20:05:13.224Z,88.60
2019-02-28T20:07:48.188Z,87.97
2019-02-28T20:10:23.298Z,80.30
2019-02-28T20:12:58.808Z,95.13
2019-02-28T20:18:32.396Z,97.27
2019-02-28T20:21:07.495Z,83.50
2019-02-28T20:23:42.536Z,94.73
2019-02-28T20:26:18.566Z,115.50
2019-02-28T20:28:53.434Z,98.30
2019-02-28T20:31:28.422Z,107.57
2019-02-28T20:34:03.291Z,101.77
2019-02-28T20:36:39.746Z,99.73
2019-02-28T20:39:15.294Z,89.00
2019-02-28T20:41:50.295Z,107.37
2019-02-28T20:44:25.831Z,95.73
2019-02-28T20:47:00.790Z,102.30
2019-02-28T20:49:35.761Z,92.60
2019-02-28T20:52:11.525Z,99.57
2019-02-28T20:54:46.415Z,98.40
2019-02-28T20:57:21.408Z,104.47
2019-02-28T20:59:56.394Z,97.73
2019-02-28T21:02:31.326Z,91.10
2019-02-28T21:05:07.575Z,98.50
2019-02-28T21:07:42.742Z,100.50
2019-02-28T21:10:18.396Z,102.70
2019-02-28T21:12:53.397Z,97.90
2019-02-28T21:15:29.283Z,107.20
2019-02-28T21:18:04.270Z,96.77
2019-02-28T21:20:42.355Z,95.83
2019-02-28T21:23:19.606Z,101.43
2019-02-28T21:25:57.223Z,94.40
2019-02-28T21:28:32.598Z,99.53
2019-02-28T21:31:07.563Z,91.30
2019-02-28T21:33:42.672Z,97.87
2019-02-28T21:36:17.593Z,88.60
2019-02-28T21:38:52.571Z,81.03
2019-02-28T21:41:27.537Z,79.17
2019-02-28T21:44:03.089Z,84.80
2019-02-28T21:46:39.153Z,89.40
2019-02-28T21:49:14.202Z,67.47
2019-02-28T21:51:49.186Z,78.87
2019-02-28T21:54:26.309Z,68.70
2019-02-28T21:57:01.380Z,81.10
2019-02-28T21:59:37.835Z,67.00
2019-02-28T22:02:12.718Z,78.43
2019-02-28T22:04:47.743Z,85.63
2019-02-28T22:07:22.701Z,70.90
2019-02-28T22:09:57.706Z,79.13
2019-02-28T22:12:33.468Z,72.87
2019-02-28T22:15:11.223Z,71.37
2019-02-28T22:17:46.292Z,78.80
2019-02-28T22:20:21.197Z,76.67
2019-02-28T22:22:56.102Z,76.17
2019-02-28T22:25:30.927Z,79.83
2019-02-28T22:28:05.811Z,70.30
2019-02-28T22:31:02.847Z,80.00
2019-02-28T22:33:56.776Z,76.47
2019-02-28T22:36:35.995Z,72.60
2019-02-28T22:39:11.977Z,76.37
2019-02-28T22:41:46.861Z,77.10
2019-02-28T22:44:21.758Z,83.20
2019-02-28T22:46:57.244Z,76.57
2019-02-28T22:49:33.697Z,84.47
2019-02-28T22:52:08.510Z,87.03
2019-02-28T22:54:43.418Z,76.63
2019-02-28T22:57:18.354Z,85.13
2019-02-28T22:59:53.263Z,89.07
2019-02-28T23:02:30.731Z,67.07
2019-02-28T23:05:05.832Z,74.87
2019-02-28T23:07:40.787Z,83.23
2019-02-28T23:10:15.754Z,75.73
2019-02-28T23:12:50.688Z,89.13
2019-02-28T23:15:25.541Z,83.47
2019-02-28T23:18:00.507Z,78.10
2019-02-28T23:20:37.245Z,82.47
2019-02-28T23:23:13.295Z,78.37
2019-02-28T23:25:48.239Z,76.03
2019-02-28T23:28:32.887Z,73.07
2019-02-28T23:32:12.325Z,92.20
2019-02-28T23:34:52.032Z,83.43
2019-02-28T23:37:26.945Z,74.33
2019-02-28T23:40:02.066Z,88.07
2019-02-28T23:42:38.965Z,85.43
2019-02-28T23:45:13.859Z,82.47
2019-02-28T23:47:48.743Z,96.60
2019-02-28T23:50:23.619Z,82.03
2019-02-28T23:52:58.462Z,84.90
2019-02-28T23:55:33.505Z,91.80
2019-02-28T23:58:08.467Z,73.50
